Time;durP1;ratioP1;P1;durP2;ratioP2;P2;SDS_P1;SDS_P2;PMS_P1;PMS_P2;Temp;Humidity;BMP_temperature;BMP_pressure;BME280_temperature;BME280_humidity;BME280_pressure;Samples;Min_cycle;Max_cycle;Signal;HPM_P1;HPM_P2
2020/12/05 00:01:38;;;;;;;11.80;5.47;;;1.90;86.30;;;;;;5105987;28;20024;-79
2020/12/05 00:04:04;;;;;;;10.57;5.20;;;1.90;86.30;;;;;;5112056;28;20039;-80
2020/12/05 00:06:30;;;;;;;12.47;5.57;;;2.00;86.30;;;;;;5111261;28;20038;-80
2020/12/05 00:08:55;;;;;;;8.30;4.80;;;1.90;86.20;;;;;;5110941;28;20015;-79
2020/12/05 00:11:27;;;;;;;13.63;6.83;;;2.00;86.60;;;;;;5110736;28;20031;-79
2020/12/05 00:13:53;;;;;;;14.80;5.70;;;2.10;86.20;;;;;;5111773;28;20110;-79
2020/12/05 00:16:19;;;;;;;8.63;3.90;;;2.10;86.00;;;;;;5087051;28;20119;-79
2020/12/05 00:18:44;;;;;;;19.60;5.77;;;2.00;85.90;;;;;;5102877;28;20035;-79
2020/12/05 00:21:10;;;;;;;13.00;5.13;;;2.10;86.00;;;;;;5110837;28;20444;-79
2020/12/05 00:23:35;;;;;;;13.57;5.90;;;2.10;86.00;;;;;;5112184;28;20123;-79
2020/12/05 00:26:01;;;;;;;8.63;5.00;;;2.00;86.10;;;;;;5109351;28;20546;-79
2020/12/05 00:28:27;;;;;;;14.83;8.97;;;2.00;86.10;;;;;;5112311;28;20035;-79
2020/12/05 00:30:52;;;;;;;20.47;10.47;;;2.10;86.10;;;;;;5108622;28;20036;-78
2020/12/05 00:33:18;;;;;;;19.73;10.93;;;2.20;86.40;;;;;;5074957;28;20039;-79
2020/12/05 00:35:43;;;;;;;19.33;12.00;;;2.30;86.50;;;;;;5095348;28;20054;-79
2020/12/05 00:38:09;;;;;;;23.87;12.57;;;2.40;86.60;;;;;;5074098;28;20035;-79
2020/12/05 00:40:35;;;;;;;22.57;12.07;;;2.40;86.80;;;;;;5095952;28;20058;-79
2020/12/05 00:43:00;;;;;;;21.60;10.97;;;2.50;87.10;;;;;;5095908;28;20594;-78
2020/12/05 00:45:26;;;;;;;21.33;10.07;;;2.50;87.30;;;;;;5086674;28;20036;-79
2020/12/05 00:47:52;;;;;;;22.23;11.67;;;2.50;87.00;;;;;;5099733;28;20107;-78
2020/12/05 00:50:17;;;;;;;17.27;10.70;;;2.50;87.20;;;;;;5110080;28;20117;-79
2020/12/05 00:52:43;;;;;;;11.20;6.50;;;2.60;87.20;;;;;;5126988;28;20087;-79
2020/12/05 00:55:08;;;;;;;10.03;5.73;;;2.50;87.00;;;;;;5097630;28;20364;-79
2020/12/05 00:57:34;;;;;;;14.50;7.70;;;2.50;86.90;;;;;;5105532;28;20447;-78
2020/12/05 01:00:00;;;;;;;9.33;5.70;;;2.60;87.20;;;;;;5094486;28;20028;-78
2020/12/05 01:02:26;;;;;;;13.27;7.47;;;2.60;86.70;;;;;;5091149;28;20105;-78
2020/12/05 01:04:52;;;;;;;15.27;8.00;;;2.70;86.50;;;;;;5094586;28;20463;-78
2020/12/05 01:07:27;;;;;;;13.63;7.43;;;2.70;86.40;;;;;;5111481;28;20077;-77
2020/12/05 01:09:55;;;;;;;11.00;7.00;;;2.70;86.40;;;;;;5110426;28;20073;-78
2020/12/05 01:12:21;;;;;;;10.97;6.80;;;2.70;86.20;;;;;;5112113;28;20034;-78
2020/12/05 01:14:47;;;;;;;9.57;6.53;;;2.80;86.30;;;;;;5109783;28;20028;-78
2020/12/05 01:17:13;;;;;;;7.10;4.33;;;2.70;86.10;;;;;;5109002;28;20095;-78
2020/12/05 01:19:39;;;;;;;12.40;5.83;;;2.60;86.00;;;;;;5111333;28;20042;-78
2020/12/05 01:22:04;;;;;;;9.30;4.73;;;2.50;86.30;;;;;;5092961;28;20055;-77
2020/12/05 01:24:30;;;;;;;16.53;7.67;;;2.50;86.30;;;;;;5110468;28;20027;-77
2020/12/05 01:26:56;;;;;;;12.90;7.63;;;2.40;86.40;;;;;;5105095;28;20360;-78
2020/12/05 01:29:21;;;;;;;7.80;5.20;;;2.50;86.70;;;;;;5091492;28;20039;-79
2020/12/05 01:31:48;;;;;;;10.20;6.03;;;2.50;86.50;;;;;;5092248;28;20046;-79
2020/12/05 01:34:15;;;;;;;7.53;4.83;;;2.50;86.30;;;;;;5108510;28;20043;-79
2020/12/05 01:36:45;;;;;;;7.83;4.60;;;2.60;86.20;;;;;;5109320;28;20494;-79
2020/12/05 01:39:11;;;;;;;9.33;4.43;;;2.60;85.90;;;;;;5111347;28;20530;-79
2020/12/05 01:41:37;;;;;;;5.33;3.90;;;2.60;85.80;;;;;;5110192;28;20027;-80
2020/12/05 01:44:03;;;;;;;6.57;3.60;;;2.40;85.70;;;;;;5093002;28;20099;-79
2020/12/05 01:46:42;;;;;;;7.73;3.77;;;2.40;85.90;;;;;;5111075;28;20027;-79
2020/12/05 01:49:09;;;;;;;6.67;3.93;;;2.30;85.90;;;;;;5094135;28;20036;-79
2020/12/05 01:51:35;;;;;;;7.20;4.80;;;2.30;85.80;;;;;;5114766;28;20043;-80
2020/12/05 01:54:01;;;;;;;8.23;4.80;;;2.30;85.70;;;;;;5096349;28;20150;-79
2020/12/05 01:56:27;;;;;;;7.37;4.50;;;2.40;85.70;;;;;;5114982;28;20035;-79
2020/12/05 01:58:54;;;;;;;7.17;4.17;;;2.30;85.60;;;;;;5113375;28;20379;-78
2020/12/05 02:01:25;;;;;;;9.53;5.43;;;2.30;85.50;;;;;;5102265;28;20019;-79
2020/12/05 02:03:56;;;;;;;8.13;4.90;;;2.20;85.40;;;;;;5113650;28;20660;-79
2020/12/05 02:06:36;;;;;;;8.07;4.70;;;2.30;85.60;;;;;;5092953;28;20070;-78
2020/12/05 02:09:16;;;;;;;9.50;4.80;;;2.30;85.60;;;;;;5110573;28;20127;-79
2020/12/05 02:11:49;;;;;;;6.73;4.50;;;2.40;85.50;;;;;;5113985;28;20471;-79
2020/12/05 02:14:19;;;;;;;6.90;4.70;;;2.40;85.40;;;;;;5113591;28;20023;-78
2020/12/05 02:16:45;;;;;;;10.30;5.37;;;2.50;85.40;;;;;;5125893;27;20668;-79
2020/12/05 02:19:16;;;;;;;8.97;5.43;;;2.50;85.40;;;;;;5113402;28;20034;-78
2020/12/05 02:21:43;;;;;;;8.90;5.17;;;2.50;85.50;;;;;;5112798;28;20034;-79
2020/12/05 02:24:09;;;;;;;12.60;6.43;;;2.60;85.40;;;;;;5095477;28;20031;-78
2020/12/05 02:26:35;;;;;;;9.80;5.77;;;2.60;85.10;;;;;;5093210;28;20624;-80
2020/12/05 02:29:01;;;;;;;9.17;5.63;;;2.70;85.40;;;;;;5103278;28;20406;-79
2020/12/05 02:31:27;;;;;;;7.57;4.47;;;2.70;85.40;;;;;;5093520;28;20025;-77
2020/12/05 02:33:53;;;;;;;6.93;4.13;;;2.70;85.20;;;;;;5097232;28;20101;-79
2020/12/05 02:36:19;;;;;;;8.67;4.27;;;2.70;85.20;;;;;;5111207;28;20044;-77
2020/12/05 02:38:55;;;;;;;7.20;4.17;;;2.70;85.20;;;;;;5096468;28;20027;-77
2020/12/05 02:41:23;;;;;;;7.33;4.57;;;2.70;85.10;;;;;;5112079;28;20020;-77
2020/12/05 02:43:49;;;;;;;7.00;4.03;;;2.70;85.10;;;;;;5095158;28;20043;-78
2020/12/05 02:46:14;;;;;;;8.40;4.20;;;2.60;85.10;;;;;;5093053;28;20088;-80
2020/12/05 02:48:40;;;;;;;6.73;4.13;;;2.60;85.10;;;;;;5113130;28;20143;-78
2020/12/05 02:51:06;;;;;;;7.17;4.37;;;2.60;85.10;;;;;;5111886;28;20122;-78
2020/12/05 02:53:31;;;;;;;9.00;5.30;;;2.50;85.00;;;;;;5120023;27;20055;-78
2020/12/05 02:55:57;;;;;;;7.03;4.13;;;2.50;85.10;;;;;;5098072;27;20023;-78
2020/12/05 02:58:22;;;;;;;7.80;4.53;;;2.50;85.10;;;;;;5134819;27;20031;-78
2020/12/05 03:00:48;;;;;;;5.60;4.20;;;2.60;85.20;;;;;;5098510;27;20119;-79
2020/12/05 03:03:14;;;;;;;5.10;3.83;;;2.60;85.10;;;;;;5094709;28;20039;-80
2020/12/05 03:05:39;;;;;;;7.17;4.43;;;2.50;85.00;;;;;;5099315;27;20020;-79
2020/12/05 03:08:05;;;;;;;7.20;4.00;;;2.50;85.10;;;;;;5095574;28;20031;-79
2020/12/05 03:10:30;;;;;;;7.57;4.30;;;2.40;85.10;;;;;;5103833;27;20110;-79
2020/12/05 03:12:56;;;;;;;6.20;4.20;;;2.30;85.10;;;;;;5097531;27;20087;-79
2020/12/05 03:15:22;;;;;;;7.77;4.27;;;2.40;85.40;;;;;;5116253;27;20469;-79
2020/12/05 03:17:47;;;;;;;6.90;4.03;;;2.40;85.30;;;;;;5133524;27;20023;-79
2020/12/05 03:20:13;;;;;;;7.07;4.40;;;2.30;85.20;;;;;;5114795;27;20019;-79
2020/12/05 03:22:38;;;;;;;7.57;5.10;;;2.30;85.20;;;;;;5116505;27;20428;-77
2020/12/05 03:25:04;;;;;;;7.50;4.23;;;2.30;85.30;;;;;;5096737;27;20030;-79
2020/12/05 03:27:30;;;;;;;7.40;4.37;;;2.30;85.20;;;;;;5095755;28;20023;-76
2020/12/05 03:29:55;;;;;;;8.50;4.77;;;2.30;85.10;;;;;;5093349;28;20438;-79
2020/12/05 03:32:27;;;;;;;7.23;4.60;;;2.20;85.00;;;;;;5107812;27;20039;-79
2020/12/05 03:34:53;;;;;;;7.03;4.77;;;2.20;85.20;;;;;;5110576;28;20085;-79
2020/12/05 03:37:19;;;;;;;8.60;4.63;;;2.10;85.30;;;;;;5089189;27;20031;-79
2020/12/05 03:39:45;;;;;;;7.30;4.47;;;2.10;85.30;;;;;;5114419;27;20027;-80
2020/12/05 03:42:11;;;;;;;10.00;4.60;;;2.00;85.30;;;;;;5127929;27;20019;-79
2020/12/05 03:44:36;;;;;;;8.20;4.43;;;1.90;85.50;;;;;;5115704;27;20081;-77
2020/12/05 03:47:02;;;;;;;8.80;5.40;;;1.90;85.70;;;;;;5115646;27;20055;-79
2020/12/05 03:49:34;;;;;;;8.57;5.10;;;1.90;85.80;;;;;;5098856;27;20034;-79
2020/12/05 03:52:01;;;;;;;7.57;4.80;;;1.90;85.80;;;;;;5116320;27;20048;-80
2020/12/05 03:54:26;;;;;;;11.30;4.90;;;1.80;85.80;;;;;;5115383;27;20047;-80
2020/12/05 03:56:52;;;;;;;7.70;5.03;;;1.70;85.80;;;;;;5080770;28;20031;-81
2020/12/05 03:59:18;;;;;;;7.20;4.87;;;1.70;86.00;;;;;;5119095;27;20419;-80
2020/12/05 04:01:43;;;;;;;8.97;5.27;;;1.80;86.00;;;;;;5135271;27;20050;-80
2020/12/05 04:04:09;;;;;;;9.43;5.67;;;1.70;86.00;;;;;;5119450;27;20019;-80
2020/12/05 04:06:35;;;;;;;10.30;5.40;;;1.70;86.20;;;;;;5115995;27;20060;-80
2020/12/05 04:09:00;;;;;;;8.77;5.00;;;1.80;86.10;;;;;;5115287;27;20062;-78
2020/12/05 04:11:26;;;;;;;9.73;5.37;;;1.70;86.00;;;;;;5097825;27;20367;-78
2020/12/05 04:13:52;;;;;;;11.90;6.00;;;1.60;86.10;;;;;;5115213;27;20027;-78
2020/12/05 04:16:17;;;;;;;10.13;5.67;;;1.60;86.40;;;;;;5099533;27;20479;-78
2020/12/05 04:18:43;;;;;;;9.50;5.63;;;1.50;86.70;;;;;;5132729;27;20479;-78
2020/12/05 04:21:09;;;;;;;7.70;5.17;;;1.50;86.90;;;;;;5096239;27;20165;-78
2020/12/05 04:23:34;;;;;;;9.73;6.10;;;1.60;86.80;;;;;;5114820;27;20146;-79
2020/12/05 04:26:00;;;;;;;11.03;6.67;;;1.60;86.90;;;;;;5131456;27;20046;-79
2020/12/05 04:28:26;;;;;;;8.37;5.53;;;1.60;87.00;;;;;;5132218;27;20031;-78
2020/12/05 04:30:51;;;;;;;10.13;6.23;;;1.60;87.00;;;;;;5079686;27;20035;-79
2020/12/05 04:33:17;;;;;;;7.00;5.03;;;1.60;87.00;;;;;;5129610;27;20104;-78
2020/12/05 04:35:42;;;;;;;8.30;5.13;;;1.60;87.00;;;;;;5097408;27;20474;-79
2020/12/05 04:38:08;;;;;;;8.67;5.33;;;1.50;86.90;;;;;;5113207;27;20027;-79
2020/12/05 04:40:34;;;;;;;8.43;5.73;;;1.50;86.80;;;;;;5131922;27;20031;-79
2020/12/05 04:43:01;;;;;;;8.57;5.90;;;1.50;86.90;;;;;;5113240;27;20031;-79
2020/12/05 04:45:28;;;;;;;12.13;6.23;;;1.50;87.00;;;;;;5094943;27;20035;-79
2020/12/05 04:47:55;;;;;;;11.07;6.63;;;1.60;87.20;;;;;;5113147;27;20111;-78
2020/12/05 04:50:23;;;;;;;12.53;7.83;;;1.60;87.20;;;;;;5132015;27;20031;-78
2020/12/05 04:52:51;;;;;;;11.50;7.03;;;1.70;87.40;;;;;;5112465;27;20034;-79
2020/12/05 04:55:23;;;;;;;11.20;7.07;;;1.70;87.30;;;;;;5125111;27;20066;-79
2020/12/05 04:57:59;;;;;;;11.98;8.27;;;1.70;87.40;;;;;;5077814;28;20074;-78
2020/12/05 05:00:28;;;;;;;13.97;8.17;;;1.70;87.50;;;;;;5111536;27;20027;-78
2020/12/05 05:02:58;;;;;;;12.13;7.33;;;1.70;87.90;;;;;;5119013;27;20769;-80
2020/12/05 05:05:24;;;;;;;12.33;7.93;;;1.70;87.60;;;;;;5133490;27;20025;-78
2020/12/05 05:07:51;;;;;;;11.07;8.03;;;1.80;87.60;;;;;;5097842;27;20031;-78
2020/12/05 05:10:25;;;;;;;11.57;8.07;;;1.80;87.60;;;;;;5095825;27;20011;-78
2020/12/05 05:13:01;;;;;;;13.50;8.40;;;1.90;87.70;;;;;;5132697;27;20053;-78
2020/12/05 05:15:31;;;;;;;13.50;8.40;;;1.90;87.70;;;;;;5113644;27;20046;-78
2020/12/05 05:18:02;;;;;;;12.53;8.10;;;1.90;87.70;;;;;;5114926;28;20027;-78
2020/12/05 05:20:37;;;;;;;14.87;8.07;;;1.90;87.60;;;;;;5132613;27;20034;-77
2020/12/05 05:23:14;;;;;;;14.17;7.70;;;1.90;87.60;;;;;;5116577;27;20093;-78
2020/12/05 05:26:00;;;;;;;12.23;8.30;;;1.90;87.60;;;;;;5083189;28;20051;-77
2020/12/05 05:28:29;;;;;;;12.90;7.70;;;1.90;87.60;;;;;;5093696;28;20031;-78
2020/12/05 05:31:24;;;;;;;10.37;7.10;;;1.80;87.50;;;;;;5112919;28;20027;-77
2020/12/05 05:33:55;;;;;;;15.73;8.13;;;1.80;87.60;;;;;;5114233;28;20031;-78
2020/12/05 05:36:29;;;;;;;14.57;8.20;;;1.70;88.10;;;;;;5132347;28;20058;-77
2020/12/05 05:39:09;;;;;;;16.00;8.53;;;1.60;87.60;;;;;;5113816;28;20038;-77
2020/12/05 05:41:37;;;;;;;11.97;7.67;;;1.60;87.70;;;;;;5114430;28;20019;-77
2020/12/05 05:44:05;;;;;;;12.37;7.20;;;1.50;87.80;;;;;;5113711;28;20431;-78
2020/12/05 05:46:37;;;;;;;12.17;8.13;;;1.50;87.90;;;;;;5112921;28;20031;-78
2020/12/05 05:49:03;;;;;;;12.67;7.60;;;1.40;87.80;;;;;;5113962;28;20376;-79
2020/12/05 05:51:56;;;;;;;11.43;7.43;;;1.30;87.70;;;;;;5131849;28;20024;-77
2020/12/05 05:54:28;;;;;;;12.05;8.05;;;1.40;87.90;;;;;;5109120;28;20614;-77
2020/12/05 05:57:03;;;;;;;13.20;8.27;;;1.30;88.00;;;;;;5110150;28;20039;-77
2020/12/05 05:59:31;;;;;;;13.20;8.60;;;1.30;88.00;;;;;;5094343;28;20024;-78
2020/12/05 06:01:57;;;;;;;12.53;8.47;;;1.30;88.30;;;;;;5100250;28;20084;-78
2020/12/05 06:04:32;;;;;;;13.53;9.43;;;1.40;88.50;;;;;;5131499;28;20023;-77
2020/12/05 06:06:59;;;;;;;12.93;8.67;;;1.40;88.50;;;;;;5113844;28;20126;-78
2020/12/05 06:09:37;;;;;;;11.20;8.53;;;1.40;88.60;;;;;;5131991;28;20032;-77
2020/12/05 06:12:03;;;;;;;12.57;9.17;;;1.50;88.90;;;;;;5092811;28;20028;-79
2020/12/05 06:14:29;;;;;;;15.03;9.77;;;1.60;89.10;;;;;;5076412;28;20119;-78
2020/12/05 06:16:57;;;;;;;15.80;9.80;;;1.70;88.90;;;;;;5114206;28;20028;-77
2020/12/05 06:19:24;;;;;;;15.33;10.03;;;1.80;88.70;;;;;;5111463;28;20066;-77
2020/12/05 06:21:52;;;;;;;12.50;9.10;;;1.80;88.60;;;;;;5112716;28;20379;-78
2020/12/05 06:24:38;;;;;;;13.47;9.40;;;1.80;88.50;;;;;;5113059;28;20051;-79
2020/12/05 06:27:05;;;;;;;12.83;8.20;;;1.80;88.50;;;;;;5131483;28;20031;-80
2020/12/05 06:29:32;;;;;;;12.60;8.60;;;1.80;88.40;;;;;;5113503;28;20125;-78
2020/12/05 06:31:58;;;;;;;12.97;7.83;;;1.80;88.40;;;;;;5110331;28;20027;-78
2020/12/05 06:34:32;;;;;;;9.50;7.50;;;1.80;88.40;;;;;;5107595;27;20478;-77
2020/12/05 06:36:59;;;;;;;11.60;8.30;;;1.80;88.20;;;;;;5117590;27;20109;-77
2020/12/05 06:39:25;;;;;;;12.80;8.50;;;1.70;88.30;;;;;;5099809;27;20498;-77
2020/12/05 06:41:52;;;;;;;12.63;8.10;;;1.70;88.40;;;;;;5124041;27;20483;-77
2020/12/05 06:44:31;;;;;;;13.43;9.07;;;1.70;88.50;;;;;;5108734;27;20043;-77
2020/12/05 06:47:08;;;;;;;16.43;9.30;;;1.70;88.70;;;;;;5116001;27;20059;-77
2020/12/05 06:49:39;;;;;;;11.67;8.13;;;1.70;88.70;;;;;;5115404;27;20463;-78
2020/12/05 06:52:26;;;;;;;13.27;9.10;;;1.80;88.80;;;;;;5097114;28;20063;-80
2020/12/05 06:54:59;;;;;;;12.50;8.73;;;1.80;88.90;;;;;;5097313;28;20062;-78
2020/12/05 06:57:30;;;;;;;12.88;8.80;;;1.80;89.00;;;;;;5097001;28;20185;-79
2020/12/05 07:00:20;;;;;;;13.70;9.13;;;1.90;89.10;;;;;;5128446;27;20034;-79
2020/12/05 07:03:19;;;;;;;21.80;10.03;;;2.00;89.30;;;;;;5109204;27;20458;-79
2020/12/05 07:05:45;;;;;;;20.40;10.67;;;2.10;89.50;;;;;;5118469;27;20164;-78
2020/12/05 07:08:21;;;;;;;15.07;9.67;;;2.20;89.90;;;;;;5099816;28;20031;-78
2020/12/05 07:11:00;;;;;;;15.93;10.63;;;2.30;89.50;;;;;;5113469;28;20032;-78
2020/12/05 07:13:49;;;;;;;16.80;10.70;;;2.40;89.40;;;;;;5114457;28;20027;-79
2020/12/05 07:16:37;;;;;;;18.10;11.17;;;2.40;89.30;;;;;;5095996;28;20072;-78
2020/12/05 07:19:03;;;;;;;18.50;10.83;;;2.50;89.20;;;;;;5128574;27;20043;-78
2020/12/05 07:21:30;;;;;;;20.63;11.47;;;2.50;88.90;;;;;;5110950;27;20038;-78
2020/12/05 07:23:56;;;;;;;15.47;10.70;;;2.60;88.90;;;;;;5122999;27;20378;-78
2020/12/05 07:26:22;;;;;;;16.73;10.93;;;2.70;88.90;;;;;;5115464;27;20023;-78
2020/12/05 07:28:57;;;;;;;16.73;11.13;;;2.90;89.00;;;;;;5116836;27;20039;-78
2020/12/05 07:31:23;;;;;;;15.13;10.33;;;2.90;88.90;;;;;;5116171;27;20051;-78
2020/12/05 07:33:49;;;;;;;18.47;11.07;;;3.00;88.80;;;;;;5092177;27;20063;-78
2020/12/05 07:36:16;;;;;;;17.47;11.17;;;3.00;88.70;;;;;;5134743;27;20492;-77
2020/12/05 07:38:44;;;;;;;16.00;11.10;;;3.00;88.20;;;;;;5131344;27;20463;-77
2020/12/05 07:41:28;;;;;;;16.93;10.80;;;3.00;88.30;;;;;;5110481;27;20114;-78
2020/12/05 07:43:57;;;;;;;17.70;11.63;;;3.00;88.20;;;;;;5096185;28;20475;-77
2020/12/05 07:46:22;;;;;;;21.27;13.13;;;3.10;88.40;;;;;;5078692;28;20020;-78
2020/12/05 07:48:48;;;;;;;23.17;13.87;;;3.10;88.60;;;;;;5099576;27;20134;-78
2020/12/05 07:51:15;;;;;;;20.03;13.87;;;3.30;89.50;;;;;;5096104;27;20483;-77
2020/12/05 07:53:42;;;;;;;24.70;16.30;;;3.60;90.10;;;;;;5114320;27;20084;-78
2020/12/05 07:56:19;;;;;;;24.73;14.90;;;4.00;90.10;;;;;;5105601;27;20459;-79
2020/12/05 07:58:49;;;;;;;23.20;15.23;;;4.50;90.10;;;;;;5132674;27;20085;-77
2020/12/05 08:01:42;;;;;;;16.87;12.13;;;5.10;89.50;;;;;;5123084;27;20027;-78
2020/12/05 08:04:22;;;;;;;14.53;10.23;;;5.70;87.20;;;;;;5125682;27;20062;-79
2020/12/05 08:07:19;;;;;;;16.87;9.63;;;6.40;83.90;;;;;;5114813;27;20062;-77
2020/12/05 08:09:45;;;;;;;16.87;11.13;;;6.90;80.30;;;;;;5125511;27;20095;-77
2020/12/05 08:12:13;;;;;;;17.17;9.77;;;7.30;78.80;;;;;;5097973;27;20122;-78
2020/12/05 08:14:42;;;;;;;19.27;10.73;;;7.60;77.40;;;;;;5096544;27;20038;-78
2020/12/05 08:17:10;;;;;;;13.90;9.13;;;7.90;75.70;;;;;;5114979;27;20027;-79
2020/12/05 08:19:40;;;;;;;22.70;11.30;;;8.20;73.90;;;;;;5114531;27;20027;-79
2020/12/05 08:22:09;;;;;;;18.50;10.23;;;8.30;72.90;;;;;;5118171;27;20373;-80
2020/12/05 08:24:51;;;;;;;19.43;12.60;;;8.50;73.00;;;;;;5117155;27;20107;-79
2020/12/05 08:27:19;;;;;;;37.50;23.35;;;8.70;72.80;;;;;;5130425;27;20062;-78
2020/12/05 08:29:47;;;;;;;29.43;18.23;;;9.10;75.20;;;;;;5109864;27;20066;-79
2020/12/05 08:32:23;;;;;;;26.60;16.50;;;9.60;74.00;;;;;;5087505;27;20035;-79
2020/12/05 08:34:49;;;;;;;36.87;20.73;;;9.90;71.60;;;;;;5118309;27;20027;-78
2020/12/05 08:37:23;;;;;;;26.37;16.37;;;10.30;71.10;;;;;;5127052;27;20096;-77
2020/12/05 08:39:51;;;;;;;32.33;20.30;;;10.70;69.20;;;;;;5147394;27;20027;-79
2020/12/05 08:42:17;;;;;;;23.70;15.97;;;11.00;68.10;;;;;;5123285;27;20492;-78
2020/12/05 08:44:42;;;;;;;24.37;16.23;;;11.20;66.30;;;;;;5118351;27;20042;-79
2020/12/05 08:47:08;;;;;;;19.50;12.80;;;11.30;65.80;;;;;;5106685;27;20024;-80
2020/12/05 08:49:42;;;;;;;16.17;11.63;;;11.40;64.30;;;;;;5101654;27;20110;-80
2020/12/05 08:52:09;;;;;;;15.07;11.00;;;11.30;63.50;;;;;;5087800;27;20042;-79
2020/12/05 08:54:48;;;;;;;12.60;6.33;;;11.00;64.60;;;;;;5108622;27;20512;-79
2020/12/05 08:57:14;;;;;;;9.57;7.10;;;11.10;63.10;;;;;;5112645;27;20467;-79
2020/12/05 08:59:41;;;;;;;8.20;5.80;;;11.20;63.70;;;;;;5112167;27;20030;-79
2020/12/05 09:02:08;;;;;;;7.63;6.00;;;11.40;63.10;;;;;;5120827;27;20410;-79
2020/12/05 09:04:36;;;;;;;6.60;5.23;;;11.40;62.30;;;;;;5108432;28;20078;-79
2020/12/05 09:07:12;;;;;;;8.20;5.40;;;11.50;62.50;;;;;;5112208;27;20529;-79
2020/12/05 09:09:41;;;;;;;6.57;5.30;;;11.70;61.30;;;;;;5105991;27;20023;-78
2020/12/05 09:12:09;;;;;;;6.43;5.63;;;11.80;61.60;;;;;;5109438;27;20020;-78
2020/12/05 09:14:36;;;;;;;7.90;4.73;;;12.00;61.50;;;;;;5108560;27;20037;-78
2020/12/05 09:17:03;;;;;;;7.20;5.15;;;12.10;60.30;;;;;;5112612;27;20474;-79
2020/12/05 09:19:31;;;;;;;7.90;6.40;;;12.10;60.70;;;;;;5095986;27;20091;-78
2020/12/05 09:21:57;;;;;;;8.50;6.63;;;12.30;60.60;;;;;;5112538;27;20019;-79
2020/12/05 09:24:23;;;;;;;10.15;7.40;;;12.60;60.10;;;;;;5091963;28;20036;-80
2020/12/05 09:26:58;;;;;;;6.88;5.55;;;12.70;59.80;;;;;;5113014;27;20168;-79
2020/12/05 09:29:23;;;;;;;8.43;5.15;;;12.80;57.80;;;;;;5106410;28;20039;-79
2020/12/05 09:31:56;;;;;;;5.35;4.70;;;12.70;58.50;;;;;;5101052;28;20027;-79
2020/12/05 09:34:38;;;;;;;7.45;6.03;;;12.60;57.80;;;;;;5131826;27;20030;-80
2020/12/05 09:37:11;;;;;;;6.43;4.95;;;12.40;59.20;;;;;;5110672;28;20031;-79
2020/12/05 09:39:38;;;;;;;2.95;2.50;;;12.60;59.00;;;;;;5115644;28;20102;-79
2020/12/05 09:42:03;;;;;;;5.22;3.72;;;12.50;55.80;;;;;;5121864;28;20040;-82
2020/12/05 09:44:29;;;;;;;9.07;6.45;;;12.30;57.10;;;;;;5119375;28;20058;-80
2020/12/05 09:46:55;;;;;;;4.95;3.72;;;12.30;58.20;;;;;;5113638;28;20363;-79
2020/12/05 09:49:20;;;;;;;6.32;5.10;;;12.30;56.40;;;;;;5099968;28;20028;-79
2020/12/05 09:51:46;;;;;;;7.75;5.80;;;12.20;57.30;;;;;;5105855;28;20730;-79
2020/12/05 09:54:12;;;;;;;6.90;5.55;;;12.50;57.80;;;;;;5087810;28;20821;-78
2020/12/05 09:56:37;;;;;;;5.78;3.63;;;12.70;57.30;;;;;;5101705;28;20104;-80
2020/12/05 09:59:03;;;;;;;5.60;4.30;;;12.70;56.10;;;;;;5113040;28;20039;-80
2020/12/05 10:01:29;;;;;;;7.57;4.60;;;12.70;57.10;;;;;;5120995;28;20035;-80
2020/12/05 10:03:55;;;;;;;5.10;4.13;;;12.90;56.60;;;;;;5114357;28;20579;-81
2020/12/05 10:06:21;;;;;;;5.60;3.63;;;13.00;55.70;;;;;;5094173;28;20027;-80
2020/12/05 10:08:47;;;;;;;4.60;2.97;;;13.10;55.60;;;;;;5092413;28;20035;-79
2020/12/05 10:11:12;;;;;;;5.93;4.65;;;13.10;55.30;;;;;;5101849;27;20033;-79
2020/12/05 10:13:38;;;;;;;5.63;4.43;;;13.00;55.10;;;;;;5090105;27;20163;-79
2020/12/05 10:16:03;;;;;;;3.92;3.38;;;12.80;55.30;;;;;;5104216;28;20411;-79
2020/12/05 10:18:29;;;;;;;5.10;4.35;;;12.60;53.40;;;;;;5111585;27;20112;-79
2020/12/05 10:20:55;;;;;;;3.58;2.63;;;12.50;55.50;;;;;;5109753;27;20035;-79
2020/12/05 10:23:21;;;;;;;5.78;4.10;;;12.50;54.20;;;;;;5091925;28;20521;-78
2020/12/05 10:25:47;;;;;;;5.30;3.30;;;12.60;56.30;;;;;;5122407;27;20050;-78
2020/12/05 10:28:12;;;;;;;1.95;1.30;;;12.80;55.80;;;;;;5095520;27;20031;-78
2020/12/05 10:30:38;;;;;;;2.97;1.45;;;12.80;53.60;;;;;;5112515;27;20031;-78
2020/12/05 10:33:04;;;;;;;3.92;3.15;;;12.30;52.60;;;;;;5078437;28;20034;-79
2020/12/05 10:35:29;;;;;;;2.07;1.87;;;11.90;55.20;;;;;;5114396;27;20034;-78
2020/12/05 10:37:55;;;;;;;2.70;1.53;;;12.00;56.10;;;;;;5110779;27;20054;-79
2020/12/05 10:40:21;;;;;;;6.07;4.53;;;12.10;55.60;;;;;;5093303;28;20027;-79
2020/12/05 10:42:46;;;;;;;5.50;2.95;;;12.30;56.50;;;;;;5095851;28;20027;-79
2020/12/05 10:45:12;;;;;;;3.10;2.30;;;12.70;56.90;;;;;;5077741;27;20046;-80
2020/12/05 10:47:37;;;;;;;4.70;1.38;;;13.00;54.10;;;;;;5097855;27;20023;-82
2020/12/05 10:50:03;;;;;;;2.72;1.33;;;13.10;53.50;;;;;;5096107;28;20031;-80
2020/12/05 10:52:29;;;;;;;2.50;0.98;;;12.90;52.40;;;;;;5098701;27;20073;-82
2020/12/05 10:54:54;;;;;;;3.35;2.20;;;12.60;53.00;;;;;;5098096;27;20062;-83
2020/12/05 10:57:20;;;;;;;3.60;2.10;;;12.30;54.10;;;;;;5110532;27;20028;-80
2020/12/05 10:59:46;;;;;;;3.53;1.98;;;12.10;55.00;;;;;;5106130;27;20024;-82
2020/12/05 11:02:11;;;;;;;6.47;3.77;;;12.20;56.10;;;;;;5072714;27;20104;-80
2020/12/05 11:04:37;;;;;;;4.87;3.80;;;12.40;56.50;;;;;;5127713;27;20619;-83
2020/12/05 11:07:02;;;;;;;5.20;1.97;;;12.50;55.00;;;;;;5105718;27;20032;-82
2020/12/05 11:09:28;;;;;;;3.53;1.83;;;12.30;54.00;;;;;;5092863;27;20046;-82
2020/12/05 11:11:54;;;;;;;2.30;1.00;;;12.10;53.80;;;;;;5110690;27;20054;-82
2020/12/05 11:14:20;;;;;;;2.93;1.73;;;11.80;52.70;;;;;;5126562;27;20062;-80
2020/12/05 11:16:45;;;;;;;5.27;2.87;;;11.50;55.00;;;;;;5088112;27;20039;-83
2020/12/05 11:19:11;;;;;;;4.43;2.70;;;11.70;56.30;;;;;;5103778;27;20027;-78
2020/12/05 11:21:36;;;;;;;3.23;1.43;;;12.10;56.70;;;;;;5086073;27;20430;-82
2020/12/05 11:24:02;;;;;;;9.07;6.53;;;12.10;54.80;;;;;;5115891;27;20035;-82
2020/12/05 11:26:28;;;;;;;3.07;1.03;;;12.20;55.80;;;;;;5107858;27;20027;-81
2020/12/05 11:28:53;;;;;;;3.67;1.70;;;12.00;53.60;;;;;;5092085;27;20081;-82
2020/12/05 11:31:19;;;;;;;6.33;3.27;;;11.70;53.20;;;;;;5105180;27;20039;-81
2020/12/05 11:33:45;;;;;;;10.37;6.90;;;11.70;57.30;;;;;;5091294;28;20031;-83
2020/12/05 11:36:11;;;;;;;6.43;4.17;;;11.70;57.60;;;;;;5119166;27;20019;-84
2020/12/05 11:38:37;;;;;;;13.07;8.60;;;11.70;56.00;;;;;;5098247;28;20475;-85
2020/12/05 11:41:03;;;;;;;11.17;6.60;;;11.80;56.80;;;;;;5095430;28;20106;-83
2020/12/05 11:43:28;;;;;;;5.23;2.13;;;11.70;55.80;;;;;;5123569;27;20137;-81
2020/12/05 11:45:54;;;;;;;3.50;1.17;;;11.50;53.80;;;;;;5106577;27;20035;-81
2020/12/05 11:48:20;;;;;;;7.20;4.83;;;11.40;56.10;;;;;;5087054;28;20027;-80
2020/12/05 11:50:45;;;;;;;5.00;1.00;;;11.10;55.00;;;;;;5099418;27;21390;-80
2020/12/05 11:53:11;;;;;;;3.10;0.60;;;11.10;54.20;;;;;;5123641;27;20065;-81
2020/12/05 11:55:36;;;;;;;2.17;0.60;;;10.70;52.90;;;;;;5085801;27;20051;-82
2020/12/05 11:58:02;;;;;;;5.17;3.67;;;10.40;53.30;;;;;;5104460;27;20042;-81
2020/12/05 12:00:28;;;;;;;3.33;0.87;;;10.20;57.00;;;;;;5087746;27;20054;-81
2020/12/05 12:02:54;;;;;;;2.20;0.90;;;10.20;54.70;;;;;;5122111;27;20035;-80
2020/12/05 12:05:20;;;;;;;4.83;1.90;;;10.30;56.40;;;;;;5105755;27;21420;-79
2020/12/05 12:07:46;;;;;;;2.13;0.97;;;10.40;57.40;;;;;;5109003;27;20019;-80
2020/12/05 12:10:12;;;;;;;2.53;0.50;;;10.50;54.80;;;;;;5105527;27;20083;-79
2020/12/05 12:12:38;;;;;;;4.00;1.87;;;10.30;54.60;;;;;;5128406;27;20031;-79
2020/12/05 12:15:03;;;;;;;2.00;0.70;;;10.30;57.00;;;;;;5085994;27;20031;-80
2020/12/05 12:17:29;;;;;;;1.70;0.50;;;10.20;57.30;;;;;;5096495;27;20027;-80
2020/12/05 12:19:55;;;;;;;3.70;1.07;;;10.10;55.30;;;;;;5113663;27;20060;-80
2020/12/05 12:22:20;;;;;;;3.90;0.70;;;10.10;58.50;;;;;;5132166;27;20054;-80
2020/12/05 12:24:46;;;;;;;2.10;0.40;;;10.20;56.10;;;;;;5131148;27;20041;-80
2020/12/05 12:27:12;;;;;;;2.07;0.30;;;10.10;56.00;;;;;;5114067;27;20477;-81
2020/12/05 12:29:37;;;;;;;1.50;0.50;;;9.90;56.10;;;;;;5096934;27;20031;-80
2020/12/05 12:32:03;;;;;;;2.40;0.57;;;9.90;58.80;;;;;;5070128;28;20127;-79
2020/12/05 12:34:29;;;;;;;4.80;0.80;;;10.00;58.50;;;;;;5112386;27;20126;-79
2020/12/05 12:36:54;;;;;;;3.17;0.40;;;10.20;59.50;;;;;;5135715;27;20496;-82
2020/12/05 12:39:20;;;;;;;1.60;0.50;;;10.20;55.40;;;;;;5098801;27;20106;-78
2020/12/05 12:41:46;;;;;;;2.37;0.53;;;10.00;55.70;;;;;;5133760;27;20101;-80
2020/12/05 12:44:11;;;;;;;2.43;0.40;;;9.80;58.60;;;;;;5103297;27;20076;-78
2020/12/05 12:46:47;;;;;;;3.63;0.50;;;9.80;57.90;;;;;;5105888;27;20031;-79
2020/12/05 12:49:13;;;;;;;2.13;0.50;;;9.70;55.70;;;;;;5109481;27;20063;-79
2020/12/05 12:51:38;;;;;;;4.23;0.40;;;9.30;57.20;;;;;;5124547;27;20057;-79
2020/12/05 12:54:04;;;;;;;2.13;0.60;;;9.20;58.20;;;;;;5123049;27;20448;-79